Leesburg, VA (20175)

2:12 AM EST on February 01, 2015 (GMT -0500)
outside leesburg | Change Station
CLOSE
Current Station
Personal Weather Station
Location: Leesburg, VA
Elevation: 463 ft
Nearby Weather Stations

Elev 463 ft 39.08 °N, 77.61 °W | Updated 1 minute ago

Scattered Clouds
Scattered Clouds
18.3 °F
Feels Like 18 °F
N
2.2
Wind Variable Wind from SW

Today
High -- | Low -- °F
--% Chance of Precip.
Yesterday
High -- | Low -- °F
Precip. -- in
7:17 AM 5:31 PM
Waxing Gibbous, 93% visible
Pressure 30.28 in
Visibility 10.0 miles
Clouds Scattered Clouds 4900 ft
Windchill 18 °F
Dew Point 15 °F
Humidity 85%
Rainfall 0.00 in
Snow Depth Not available.
UV 0 out of 12
Pollen .30 out of 12
Air Quality Not available.
Flu Activity Not available.
METAR KJYO 010655Z AUTO 00000KT 10SM SCT049 M06/M08 A3028 RMK AO2

More Conditions Fewer Conditions

Pressure 30.28 in
Visibility 10.0 miles
Clouds Scattered Clouds 4900 ft
Windchill 18 °F
Dew Point 15 °F
Humidity 85%
Rainfall 0.00 in
Snow Depth Not available.
UV 0 out of 12
Pollen .30 out of 12
Air Quality Not available.
Flu Activity Not available.
METAR KJYO 010655Z AUTO 00000KT 10SM SCT049 M06/M08 A3028 RMK AO2

More Conditions Fewer Conditions

10-Day Weather Forecast

Almanac

Astronomy

Feb. 01, 2015 Rise Set
Actual Time
Civil Twilight
Nautical Twilight
Astronomical Twilight
Moon
Length of Visible Light
Length of Day
Tomorrow will be .
, % of the Moon is Illuminated

Today's Extremes

State Highs State Lows

Community

WunderPhotos

Upload Photos

1,792,325 photos uploaded!

WunderBlogs® & News

Nearby

Air Quality

  Air Quality AQ Index Pollutant
Not available.

Snow Depth

Station Depth Elevation

Earthquake Activity

City Distance Mag. Time & Date
Minimum magnitude displayed is 2.5.

Coastal Water Temperatures

Place Temperature

Nearby Weather Stations